createdAt,value
2022-10-15T00:01:29.346Z,12.10
2022-10-15T00:03:56.095Z,12.10
2022-10-15T00:06:23.065Z,12.10
2022-10-15T00:08:50.048Z,12.10
2022-10-15T00:11:22.604Z,12.10
2022-10-15T00:13:50.486Z,12.10
2022-10-15T00:16:22.297Z,12.10
2022-10-15T00:18:49.630Z,12.10
2022-10-15T00:21:19.765Z,12.10
2022-10-15T00:23:47.755Z,12.00
2022-10-15T00:26:17.982Z,12.00
2022-10-15T00:28:45.709Z,12.00
2022-10-15T00:31:17.044Z,12.00
2022-10-15T00:33:44.492Z,12.00
2022-10-15T00:36:14.418Z,12.00
2022-10-15T00:38:41.983Z,12.00
2022-10-15T00:41:14.116Z,12.00
2022-10-15T00:43:40.814Z,12.00
2022-10-15T00:46:18.567Z,12.00
2022-10-15T00:48:49.374Z,12.00
2022-10-15T00:51:19.304Z,12.00
2022-10-15T00:53:49.222Z,12.00
2022-10-15T00:56:19.639Z,12.10
2022-10-15T00:58:47.779Z,12.00
2022-10-15T01:01:14.861Z,12.00
2022-10-15T01:03:42.521Z,12.00
2022-10-15T01:06:11.129Z,12.00
2022-10-15T01:08:37.890Z,12.00
2022-10-15T01:11:16.625Z,11.90
2022-10-15T01:13:57.808Z,12.00
2022-10-15T01:16:57.029Z,11.90
2022-10-15T01:19:38.675Z,12.00
2022-10-15T01:22:45.537Z,12.00
2022-10-15T01:25:36.414Z,12.00
2022-10-15T01:28:08.810Z,11.90
2022-10-15T01:30:41.802Z,11.90
2022-10-15T01:33:21.166Z,11.90
2022-10-15T01:36:11.687Z,11.90
2022-10-15T01:38:41.359Z,12.00
2022-10-15T01:41:29.063Z,12.00
2022-10-15T01:44:11.203Z,11.90
2022-10-15T01:47:08.848Z,12.00
2022-10-15T01:49:41.035Z,12.00
2022-10-15T01:52:14.205Z,12.00
2022-10-15T01:54:41.481Z,12.00
2022-10-15T01:57:09.955Z,11.90
2022-10-15T01:59:36.839Z,11.90
2022-10-15T02:02:03.629Z,12.00
2022-10-15T02:04:31.996Z,12.00
2022-10-15T02:07:17.510Z,12.00
2022-10-15T02:09:53.451Z,12.00
2022-10-15T02:12:29.173Z,12.00
2022-10-15T02:15:25.152Z,12.00
2022-10-15T02:18:02.566Z,12.00
2022-10-15T02:20:49.047Z,12.00
2022-10-15T02:23:32.268Z,12.00
2022-10-15T02:25:59.676Z,12.00
2022-10-15T02:28:30.432Z,12.00
2022-10-15T02:30:59.060Z,12.00
2022-10-15T02:33:27.362Z,12.00
2022-10-15T02:35:55.654Z,12.00
2022-10-15T02:38:25.864Z,12.00
2022-10-15T02:40:54.224Z,12.00
2022-10-15T02:43:22.114Z,12.00
2022-10-15T02:45:50.037Z,12.00
2022-10-15T02:48:17.561Z,12.00
2022-10-15T02:50:44.399Z,12.00
2022-10-15T02:53:11.159Z,12.10
2022-10-15T02:55:38.366Z,12.10
2022-10-15T02:58:05.158Z,12.10
2022-10-15T03:00:31.997Z,12.10
2022-10-15T03:03:00.492Z,12.00
2022-10-15T03:07:54.563Z,12.10
2022-10-15T03:10:21.727Z,12.00
2022-10-15T03:12:48.691Z,12.00
2022-10-15T03:15:15.397Z,12.00
2022-10-15T03:17:42.424Z,12.00
2022-10-15T03:20:10.646Z,12.00
2022-10-15T03:22:37.816Z,12.00
2022-10-15T03:25:05.254Z,12.00
2022-10-15T03:27:32.300Z,12.00
2022-10-15T03:29:59.357Z,12.00
2022-10-15T03:32:26.358Z,12.00
2022-10-15T03:34:53.532Z,12.00
2022-10-15T03:37:20.595Z,12.10
2022-10-15T03:39:47.432Z,12.10
2022-10-15T03:42:15.755Z,12.10
2022-10-15T03:44:42.424Z,12.10
2022-10-15T03:47:09.148Z,12.10
2022-10-15T03:49:36.106Z,12.10
2022-10-15T03:52:03.170Z,12.00
2022-10-15T03:54:31.860Z,12.10
2022-10-15T03:56:58.977Z,12.10
2022-10-15T03:59:26.481Z,12.10
2022-10-15T04:01:53.263Z,12.10
2022-10-15T04:04:20.006Z,12.10
2022-10-15T04:06:48.524Z,12.10
2022-10-15T04:09:15.667Z,12.10
2022-10-15T04:11:42.467Z,12.10
2022-10-15T04:14:09.153Z,12.10
2022-10-15T04:16:35.942Z,12.10
2022-10-15T04:19:07.291Z,12.10
2022-10-15T04:21:36.910Z,12.10
2022-10-15T04:24:04.115Z,12.10
2022-10-15T04:26:31.157Z,12.10
2022-10-15T04:28:58.045Z,12.10
2022-10-15T04:31:28.386Z,12.10
2022-10-15T04:33:55.156Z,12.10
2022-10-15T04:36:22.343Z,12.10
2022-10-15T04:38:49.382Z,12.10
2022-10-15T04:41:17.022Z,12.10
2022-10-15T04:43:44.191Z,12.10
2022-10-15T04:46:11.076Z,12.10
2022-10-15T04:48:42.861Z,12.10
2022-10-15T04:51:17.180Z,12.10
2022-10-15T04:53:45.195Z,12.10
2022-10-15T04:56:15.706Z,12.10
2022-10-15T04:58:43.664Z,12.10
2022-10-15T05:01:12.608Z,12.10
2022-10-15T05:03:44.150Z,12.10
2022-10-15T05:06:18.629Z,12.10
2022-10-15T05:08:46.391Z,12.10
2022-10-15T05:11:19.708Z,12.10
2022-10-15T05:13:46.505Z,12.10
2022-10-15T05:16:23.091Z,12.10
2022-10-15T05:18:52.879Z,12.10
2022-10-15T05:21:20.087Z,12.10
2022-10-15T05:23:47.379Z,12.10
2022-10-15T05:26:16.484Z,12.10
2022-10-15T05:28:43.383Z,12.10
2022-10-15T05:31:20.203Z,12.10
2022-10-15T05:33:51.433Z,12.10
2022-10-15T05:36:19.584Z,12.10
2022-10-15T05:38:49.822Z,12.10
2022-10-15T05:41:16.845Z,12.10
2022-10-15T05:43:43.602Z,12.20
2022-10-15T05:46:10.543Z,12.10
2022-10-15T05:48:37.622Z,12.20
2022-10-15T05:51:06.347Z,12.20
2022-10-15T05:53:33.355Z,12.20
2022-10-15T05:56:00.130Z,12.20
2022-10-15T05:58:31.980Z,12.20
2022-10-15T06:01:10.570Z,12.20
2022-10-15T06:03:38.340Z,12.20
2022-10-15T06:06:05.581Z,12.20
2022-10-15T06:08:32.498Z,12.20
2022-10-15T06:11:06.974Z,12.20
2022-10-15T06:13:39.750Z,12.20
2022-10-15T06:16:06.840Z,12.20
2022-10-15T06:18:33.757Z,12.20
2022-10-15T06:21:02.045Z,12.30
2022-10-15T06:23:28.885Z,12.30
2022-10-15T06:25:55.766Z,12.30
2022-10-15T06:28:22.656Z,12.40
2022-10-15T06:30:49.375Z,12.50
2022-10-15T06:33:17.354Z,12.50
2022-10-15T06:35:44.144Z,12.50
2022-10-15T06:38:11.128Z,12.60
2022-10-15T06:40:39.917Z,12.70
2022-10-15T06:43:08.405Z,12.70
2022-10-15T06:45:37.752Z,12.70
2022-10-15T06:48:06.918Z,12.80
2022-10-15T06:50:38.336Z,12.80
2022-10-15T06:53:05.809Z,12.90
2022-10-15T06:55:33.166Z,12.90
2022-10-15T06:57:59.951Z,12.90
2022-10-15T07:00:27.601Z,12.90
2022-10-15T07:02:54.799Z,12.90
2022-10-15T07:05:21.853Z,13.00
2022-10-15T07:07:55.719Z,13.00
2022-10-15T07:10:25.053Z,13.00
2022-10-15T07:12:52.145Z,13.00
2022-10-15T07:15:19.237Z,13.00
2022-10-15T07:17:49.841Z,13.00
2022-10-15T07:20:21.857Z,13.00
2022-10-15T07:22:51.163Z,13.00
2022-10-15T07:25:17.868Z,13.00
2022-10-15T07:27:45.201Z,13.00
2022-10-15T07:30:12.297Z,13.00
2022-10-15T07:32:39.031Z,13.10
2022-10-15T07:35:06.044Z,13.20
2022-10-15T07:37:32.923Z,13.30
2022-10-15T07:39:59.857Z,13.30
2022-10-15T07:42:27.059Z,13.40
2022-10-15T07:44:53.800Z,13.40
2022-10-15T07:47:20.804Z,13.50
2022-10-15T07:49:47.652Z,13.50
2022-10-15T07:52:14.513Z,13.60
2022-10-15T07:54:41.228Z,13.70
2022-10-15T07:57:08.342Z,13.80
2022-10-15T07:59:35.757Z,13.80
2022-10-15T08:02:02.558Z,13.80
2022-10-15T08:04:29.443Z,13.80
2022-10-15T08:06:56.235Z,13.80
2022-10-15T08:09:23.345Z,13.90
2022-10-15T08:11:50.206Z,14.00
2022-10-15T08:14:17.828Z,14.00
2022-10-15T08:16:44.860Z,14.00
2022-10-15T08:19:11.851Z,13.90
2022-10-15T08:21:38.643Z,13.80
2022-10-15T08:24:05.979Z,13.80
2022-10-15T08:26:33.026Z,13.60
2022-10-15T08:29:00.584Z,13.60
2022-10-15T08:31:27.406Z,13.60
2022-10-15T08:33:54.638Z,13.60
2022-10-15T08:36:21.778Z,13.60
2022-10-15T08:38:48.520Z,13.60
2022-10-15T08:41:53.543Z,13.60
2022-10-15T08:44:27.786Z,13.50
2022-10-15T08:47:02.897Z,13.50
2022-10-15T08:49:35.834Z,13.50
2022-10-15T08:52:18.846Z,13.60
2022-10-15T08:54:45.698Z,13.60
2022-10-15T08:57:30.860Z,13.50
2022-10-15T09:00:05.837Z,13.50
2022-10-15T09:03:25.153Z,13.50
2022-10-15T09:06:22.392Z,13.60
2022-10-15T09:09:03.541Z,13.70
2022-10-15T09:11:46.220Z,13.70
2022-10-15T09:14:29.387Z,13.70
2022-10-15T09:16:56.394Z,13.70
2022-10-15T09:19:27.521Z,13.80
2022-10-15T09:21:55.036Z,13.90
2022-10-15T09:24:28.080Z,14.00
2022-10-15T09:26:54.887Z,14.00
2022-10-15T09:29:43.727Z,14.00
2022-10-15T09:32:19.428Z,14.00
2022-10-15T09:35:02.462Z,14.10
2022-10-15T09:38:05.711Z,14.10
2022-10-15T09:40:58.759Z,14.20
2022-10-15T09:43:35.638Z,14.40
2022-10-15T09:46:03.822Z,14.50
2022-10-15T09:48:41.627Z,14.50
2022-10-15T09:51:35.662Z,14.50
2022-10-15T09:54:30.223Z,14.50
2022-10-15T09:56:57.999Z,14.50
2022-10-15T09:59:26.106Z,14.50
2022-10-15T10:02:19.196Z,14.50
2022-10-15T10:04:46.247Z,14.40
2022-10-15T10:07:36.658Z,14.30
2022-10-15T10:10:23.353Z,14.20
2022-10-15T10:12:51.532Z,14.30
2022-10-15T10:15:36.812Z,14.30
2022-10-15T10:18:07.012Z,14.30
2022-10-15T10:20:42.458Z,14.30
2022-10-15T10:23:35.656Z,14.40
2022-10-15T10:26:06.839Z,14.50
2022-10-15T10:29:04.962Z,14.60
2022-10-15T10:31:43.104Z,14.80
2022-10-15T10:34:16.714Z,14.90
2022-10-15T10:36:51.501Z,15.10
2022-10-15T10:39:24.119Z,15.10
2022-10-15T10:42:02.604Z,15.10
2022-10-15T10:44:38.899Z,15.00
2022-10-15T10:47:16.377Z,14.90
2022-10-15T10:49:53.419Z,14.90
2022-10-15T10:52:26.346Z,14.90
2022-10-15T10:55:18.620Z,14.90
2022-10-15T10:58:05.218Z,15.00
2022-10-15T11:00:43.584Z,14.90
2022-10-15T11:03:44.780Z,15.00
2022-10-15T11:06:33.753Z,15.00
2022-10-15T11:09:31.227Z,15.00
2022-10-15T11:12:25.678Z,15.10
2022-10-15T11:14:58.284Z,15.10
2022-10-15T11:17:33.997Z,15.10
2022-10-15T11:23:27.327Z,15.10
2022-10-15T11:26:03.626Z,15.10
2022-10-15T11:29:04.051Z,15.10
2022-10-15T11:32:15.130Z,15.20
2022-10-15T11:34:53.533Z,15.20
2022-10-15T11:37:58.119Z,15.70
2022-10-15T11:40:37.424Z,16.20
2022-10-15T11:43:37.092Z,16.40
2022-10-15T11:46:15.858Z,16.50
2022-10-15T11:49:09.742Z,16.40
2022-10-15T11:52:03.324Z,16.30
2022-10-15T11:54:39.048Z,16.30
2022-10-15T11:57:10.238Z,16.30
2022-10-15T11:59:55.037Z,16.20
2022-10-15T12:02:33.139Z,16.00
2022-10-15T12:05:20.020Z,15.90
2022-10-15T12:07:49.305Z,15.90
2022-10-15T12:10:40.199Z,15.90
2022-10-15T12:13:20.880Z,15.80
2022-10-15T12:15:50.554Z,15.70
2022-10-15T12:18:17.325Z,15.70
2022-10-15T12:20:45.582Z,15.60
2022-10-15T12:23:37.247Z,15.50
2022-10-15T12:26:24.295Z,15.40
2022-10-15T12:28:54.390Z,15.50
2022-10-15T12:31:24.566Z,15.70
2022-10-15T12:33:56.321Z,15.90
2022-10-15T12:36:30.828Z,16.00
2022-10-15T12:39:28.137Z,15.90
2022-10-15T12:42:22.348Z,16.00
2022-10-15T12:44:53.036Z,15.90
2022-10-15T12:47:50.935Z,15.80
2022-10-15T12:50:19.684Z,15.80
2022-10-15T12:52:52.378Z,15.70
2022-10-15T12:55:27.547Z,15.60
2022-10-15T12:58:02.406Z,15.60
2022-10-15T13:00:40.837Z,15.40
2022-10-15T13:03:20.558Z,15.30
2022-10-15T13:05:50.233Z,15.20
2022-10-15T13:08:24.469Z,15.10
2022-10-15T13:10:55.289Z,15.10
2022-10-15T13:13:26.459Z,15.10
2022-10-15T13:16:19.310Z,15.20
2022-10-15T13:18:55.689Z,15.40
2022-10-15T13:21:23.610Z,15.40
2022-10-15T13:23:52.156Z,15.40
2022-10-15T13:26:30.188Z,15.30
2022-10-15T13:29:00.382Z,15.20
2022-10-15T13:31:31.472Z,15.10
2022-10-15T13:34:32.364Z,15.20
2022-10-15T13:37:01.321Z,15.40
2022-10-15T13:39:37.547Z,15.50
2022-10-15T13:42:20.032Z,15.50
2022-10-15T13:45:18.600Z,15.50
2022-10-15T13:47:51.873Z,15.40
2022-10-15T13:50:24.545Z,15.40
2022-10-15T13:52:57.508Z,15.40
2022-10-15T13:55:28.528Z,15.40
2022-10-15T13:58:16.165Z,15.40
2022-10-15T14:00:43.186Z,15.50
2022-10-15T14:03:25.310Z,15.50
2022-10-15T14:05:54.093Z,15.40
2022-10-15T14:08:28.616Z,15.30
2022-10-15T14:10:58.633Z,15.40
2022-10-15T14:13:26.695Z,15.30
2022-10-15T14:16:06.337Z,15.10
2022-10-15T14:18:36.812Z,15.00
2022-10-15T14:21:04.250Z,14.90
2022-10-15T14:23:31.920Z,14.90
2022-10-15T14:26:03.281Z,14.80
2022-10-15T14:28:33.297Z,14.80
2022-10-15T14:31:01.599Z,14.80
2022-10-15T14:33:37.467Z,14.70
2022-10-15T14:36:11.984Z,14.70
2022-10-15T14:38:40.254Z,14.70
2022-10-15T14:41:46.737Z,14.70
2022-10-15T14:44:13.371Z,14.80
2022-10-15T14:46:49.163Z,14.90
2022-10-15T14:49:27.645Z,14.80
2022-10-15T14:52:17.332Z,14.80
2022-10-15T14:55:25.534Z,14.80
2022-10-15T14:57:55.582Z,14.80
2022-10-15T15:00:27.553Z,14.70
2022-10-15T15:02:59.567Z,14.60
2022-10-15T15:05:28.073Z,14.60
2022-10-15T15:07:58.901Z,14.60
2022-10-15T15:10:27.966Z,14.60
2022-10-15T15:12:56.895Z,14.70
2022-10-15T15:15:26.184Z,14.70
2022-10-15T15:17:53.923Z,14.70
2022-10-15T15:20:21.576Z,14.70
2022-10-15T15:22:50.802Z,14.60
2022-10-15T15:25:29.891Z,14.60
2022-10-15T15:28:00.263Z,14.60
2022-10-15T15:30:29.113Z,14.70
2022-10-15T15:32:56.354Z,14.70
2022-10-15T15:35:51.256Z,14.60
2022-10-15T15:38:27.106Z,14.50
2022-10-15T15:40:55.143Z,14.50
2022-10-15T15:43:21.877Z,14.40
2022-10-15T15:45:48.678Z,14.40
2022-10-15T15:48:15.726Z,14.30
2022-10-15T15:50:42.514Z,14.30
2022-10-15T15:53:12.627Z,14.20
2022-10-15T15:55:39.516Z,14.20
2022-10-15T15:58:06.368Z,14.10
2022-10-15T16:00:35.231Z,14.10
2022-10-15T16:03:04.471Z,14.00
2022-10-15T16:05:31.208Z,14.00
2022-10-15T16:07:58.200Z,13.90
2022-10-15T16:10:25.361Z,13.90
2022-10-15T16:12:52.434Z,13.90
2022-10-15T16:15:19.197Z,13.80
2022-10-15T16:17:45.920Z,13.80
2022-10-15T16:20:13.985Z,13.80
2022-10-15T16:22:41.180Z,13.90
2022-10-15T16:25:10.035Z,13.90
2022-10-15T16:27:36.934Z,14.00
2022-10-15T16:30:05.621Z,14.00
2022-10-15T16:32:32.359Z,14.00
2022-10-15T16:35:00.905Z,14.10
2022-10-15T16:37:31.184Z,14.10
2022-10-15T16:39:58.248Z,14.10
2022-10-15T16:42:25.315Z,14.10
2022-10-15T16:44:52.811Z,14.20
2022-10-15T16:47:24.015Z,14.20
2022-10-15T16:49:51.076Z,14.10
2022-10-15T16:52:17.880Z,14.10
2022-10-15T16:54:46.758Z,14.10
2022-10-15T16:57:13.679Z,14.10
2022-10-15T16:59:47.472Z,14.10
2022-10-15T17:02:17.147Z,14.10
2022-10-15T17:04:51.048Z,14.10
2022-10-15T17:07:17.680Z,14.10
2022-10-15T17:09:46.352Z,14.10
2022-10-15T17:12:13.081Z,14.10
2022-10-15T17:14:39.712Z,14.00
2022-10-15T17:17:08.064Z,14.00
2022-10-15T17:19:35.159Z,14.00
2022-10-15T17:22:01.875Z,14.00
2022-10-15T17:24:28.600Z,14.00
2022-10-15T17:26:57.797Z,14.00
2022-10-15T17:29:29.049Z,14.10
2022-10-15T17:32:02.024Z,14.10
2022-10-15T17:34:28.948Z,14.10
2022-10-15T17:36:56.544Z,14.10
2022-10-15T17:39:23.769Z,14.00
2022-10-15T17:41:54.104Z,14.00
2022-10-15T17:44:21.004Z,14.00
2022-10-15T17:49:18.613Z,14.00
2022-10-15T17:51:47.366Z,14.10
2022-10-15T17:54:14.986Z,14.10
2022-10-15T17:56:41.674Z,14.20
2022-10-15T17:59:11.808Z,14.20
2022-10-15T18:01:59.676Z,14.20
2022-10-15T18:04:29.204Z,14.20
2022-10-15T18:06:55.960Z,14.20
2022-10-15T18:09:22.747Z,14.20
2022-10-15T18:11:49.854Z,14.20
2022-10-15T18:14:16.596Z,14.20
2022-10-15T18:16:48.066Z,14.20
2022-10-15T18:19:15.522Z,14.20
2022-10-15T18:21:46.893Z,14.20
2022-10-15T18:24:16.701Z,14.20
2022-10-15T18:26:44.163Z,14.20
2022-10-15T18:29:13.925Z,14.20
2022-10-15T18:31:40.966Z,14.20
2022-10-15T18:34:07.817Z,14.20
2022-10-15T18:36:34.573Z,14.20
2022-10-15T18:39:01.303Z,14.20
2022-10-15T18:41:30.765Z,14.20
2022-10-15T18:44:06.512Z,14.20
2022-10-15T18:46:34.922Z,14.10
2022-10-15T18:49:02.351Z,14.10
2022-10-15T18:51:29.814Z,14.20
2022-10-15T18:53:56.588Z,14.10
2022-10-15T18:56:23.573Z,14.10
2022-10-15T18:58:59.552Z,14.10
2022-10-15T19:01:33.072Z,14.10
2022-10-15T19:04:12.183Z,14.10
2022-10-15T19:06:41.870Z,14.10
2022-10-15T19:09:12.074Z,14.10
2022-10-15T19:11:40.976Z,14.00
2022-10-15T19:14:07.832Z,14.00
2022-10-15T19:16:36.096Z,14.10
2022-10-15T19:19:05.163Z,14.10
2022-10-15T19:21:32.626Z,14.10
2022-10-15T19:23:59.960Z,14.10
2022-10-15T19:26:28.096Z,14.00
2022-10-15T19:28:54.867Z,14.00
2022-10-15T19:31:37.218Z,14.00
2022-10-15T19:34:04.628Z,14.00
2022-10-15T19:36:38.001Z,14.00
2022-10-15T19:39:08.285Z,14.00
2022-10-15T19:41:39.954Z,14.00
2022-10-15T19:44:08.390Z,14.00
2022-10-15T19:46:36.638Z,14.00
2022-10-15T19:49:05.132Z,14.00
2022-10-15T19:51:31.978Z,14.00
2022-10-15T19:54:01.251Z,14.00
2022-10-15T19:56:28.371Z,14.00
2022-10-15T19:58:58.042Z,14.00
2022-10-15T20:01:27.789Z,13.90
2022-10-15T20:03:54.678Z,14.00
2022-10-15T20:06:22.928Z,14.00
2022-10-15T20:08:50.756Z,14.00
2022-10-15T20:11:20.164Z,14.00
2022-10-15T20:13:47.585Z,14.00
2022-10-15T20:16:14.425Z,14.00
2022-10-15T20:18:41.432Z,14.00
2022-10-15T20:21:10.229Z,14.00
2022-10-15T20:23:39.294Z,13.90
2022-10-15T20:26:08.352Z,13.90
2022-10-15T20:28:36.926Z,13.90
2022-10-15T20:31:21.000Z,13.90
2022-10-15T20:33:47.948Z,13.90
2022-10-15T20:36:22.581Z,13.80
2022-10-15T20:38:50.730Z,13.80
2022-10-15T20:41:18.903Z,13.80
2022-10-15T20:43:47.338Z,13.80
2022-10-15T20:46:19.937Z,13.80
2022-10-15T20:48:47.913Z,13.80
2022-10-15T20:51:17.639Z,13.80
2022-10-15T20:53:45.871Z,13.90
2022-10-15T20:56:12.675Z,13.90
2022-10-15T20:58:40.945Z,13.80
2022-10-15T21:01:07.949Z,13.80
2022-10-15T21:03:34.914Z,13.90
2022-10-15T21:06:02.975Z,13.80
2022-10-15T21:08:29.691Z,13.80
2022-10-15T21:11:08.299Z,13.80
2022-10-15T21:13:37.936Z,13.80
2022-10-15T21:16:06.736Z,13.80
2022-10-15T21:18:35.832Z,13.80
2022-10-15T21:21:04.401Z,13.80
2022-10-15T21:23:34.005Z,13.80
2022-10-15T21:26:05.986Z,13.80
2022-10-15T21:28:34.734Z,13.80
2022-10-15T21:31:07.907Z,13.80
2022-10-15T21:33:37.878Z,13.80
2022-10-15T21:36:25.549Z,13.70
2022-10-15T21:38:59.839Z,13.70
2022-10-15T21:41:33.063Z,13.80
2022-10-15T21:44:01.743Z,13.70
2022-10-15T21:46:31.339Z,13.70
2022-10-15T21:48:59.877Z,13.70
2022-10-15T21:51:33.107Z,13.70
2022-10-15T21:54:00.680Z,13.70
2022-10-15T21:56:27.637Z,13.70
2022-10-15T21:58:54.991Z,13.70
2022-10-15T22:01:24.358Z,13.70
2022-10-15T22:03:52.908Z,13.70
2022-10-15T22:06:21.259Z,13.70
2022-10-15T22:08:48.624Z,13.70
